sensor_id;sensor_type;location;lat;lon;timestamp;pressure;altitude;pressure_sealevel;temperature
34310;BMP280;61664;48.112;11.662;2023-02-23T00:02:00;95126.41;;;12.00
34310;BMP280;61664;48.112;11.662;2023-02-23T00:04:34;95126.66;;;11.97
34310;BMP280;61664;48.112;11.662;2023-02-23T00:07:01;95138.63;;;12.01
34310;BMP280;61664;48.112;11.662;2023-02-23T00:09:28;95129.06;;;11.95
34310;BMP280;61664;48.112;11.662;2023-02-23T00:12:05;95133.69;;;11.94
34310;BMP280;61664;48.112;11.662;2023-02-23T00:14:37;95130.03;;;11.92
34310;BMP280;61664;48.112;11.662;2023-02-23T00:17:04;95130.22;;;11.88
34310;BMP280;61664;48.112;11.662;2023-02-23T00:19:36;95131.41;;;11.87
34310;BMP280;61664;48.112;11.662;2023-02-23T00:22:03;95130.09;;;11.77
34310;BMP280;61664;48.112;11.662;2023-02-23T00:24:30;95126.47;;;11.80
34310;BMP280;61664;48.112;11.662;2023-02-23T00:26:57;95138.38;;;11.79
34310;BMP280;61664;48.112;11.662;2023-02-23T00:29:24;95138.38;;;11.79
34310;BMP280;61664;48.112;11.662;2023-02-23T00:31:51;95136.44;;;11.79
34310;BMP280;61664;48.112;11.662;2023-02-23T00:34:20;95136.91;;;11.78
34310;BMP280;61664;48.112;11.662;2023-02-23T00:36:52;95142.53;;;11.80
34310;BMP280;61664;48.112;11.662;2023-02-23T00:39:22;95143.72;;;11.79
34310;BMP280;61664;48.112;11.662;2023-02-23T00:41:55;95137.13;;;11.74
34310;BMP280;61664;48.112;11.662;2023-02-23T00:44:28;95127.38;;;11.71
34310;BMP280;61664;48.112;11.662;2023-02-23T00:46:55;95136.41;;;11.74
34310;BMP280;61664;48.112;11.662;2023-02-23T00:49:22;95139.84;;;11.80
34310;BMP280;61664;48.112;11.662;2023-02-23T00:51:49;95123.47;;;11.72
34310;BMP280;61664;48.112;11.662;2023-02-23T00:54:20;95141.38;;;11.86
34310;BMP280;61664;48.112;11.662;2023-02-23T00:56:47;95134.09;;;11.87
34310;BMP280;61664;48.112;11.662;2023-02-23T00:59:15;95125.84;;;11.91
34310;BMP280;61664;48.112;11.662;2023-02-23T01:01:43;95130.78;;;11.92
34310;BMP280;61664;48.112;11.662;2023-02-23T01:04:11;95122.19;;;11.88
34310;BMP280;61664;48.112;11.662;2023-02-23T01:06:40;95120.97;;;11.89
34310;BMP280;61664;48.112;11.662;2023-02-23T01:09:12;95138.09;;;11.97
34310;BMP280;61664;48.112;11.662;2023-02-23T01:11:39;95128.59;;;11.96
34310;BMP280;61664;48.112;11.662;2023-02-23T01:14:12;95127.66;;;11.99
34310;BMP280;61664;48.112;11.662;2023-02-23T01:16:39;95125.50;;;12.03
34310;BMP280;61664;48.112;11.662;2023-02-23T01:19:06;95127.53;;;12.14
34310;BMP280;61664;48.112;11.662;2023-02-23T01:21:37;95137.78;;;12.15
34310;BMP280;61664;48.112;11.662;2023-02-23T01:24:04;95140.88;;;12.08
34310;BMP280;61664;48.112;11.662;2023-02-23T01:26:37;95144.09;;;12.12
34310;BMP280;61664;48.112;11.662;2023-02-23T01:29:14;95140.41;;;12.10
34310;BMP280;61664;48.112;11.662;2023-02-23T01:31:45;95143.81;;;12.10
34310;BMP280;61664;48.112;11.662;2023-02-23T01:34:14;95145.03;;;12.09
34310;BMP280;61664;48.112;11.662;2023-02-23T01:36:42;95144.75;;;12.07
34310;BMP280;61664;48.112;11.662;2023-02-23T01:39:13;95134.44;;;12.00
34310;BMP280;61664;48.112;11.662;2023-02-23T01:41:41;95137.44;;;12.02
34310;BMP280;61664;48.112;11.662;2023-02-23T01:46:44;95130.53;;;11.96
34310;BMP280;61664;48.112;11.662;2023-02-23T01:49:22;95122.75;;;11.92
34310;BMP280;61664;48.112;11.662;2023-02-23T01:52:12;95126.31;;;11.89
34310;BMP280;61664;48.112;11.662;2023-02-23T01:54:46;95135.16;;;11.95
34310;BMP280;61664;48.112;11.662;2023-02-23T01:57:20;95132.94;;;11.94
34310;BMP280;61664;48.112;11.662;2023-02-23T01:59:48;95123.94;;;11.91
34310;BMP280;61664;48.112;11.662;2023-02-23T02:02:21;95133.94;;;11.96
34310;BMP280;61664;48.112;11.662;2023-02-23T02:04:49;95116.81;;;11.88
34310;BMP280;61664;48.112;11.662;2023-02-23T02:07:22;95126.84;;;11.93
34310;BMP280;61664;48.112;11.662;2023-02-23T02:09:55;95129.47;;;11.87
34310;BMP280;61664;48.112;11.662;2023-02-23T02:12:39;95118.72;;;11.82
34310;BMP280;61664;48.112;11.662;2023-02-23T02:15:08;95107.22;;;11.76
34310;BMP280;61664;48.112;11.662;2023-02-23T02:17:50;95119.00;;;11.84
34310;BMP280;61664;48.112;11.662;2023-02-23T02:21:33;95111.13;;;11.80
34310;BMP280;61664;48.112;11.662;2023-02-23T02:27:26;95106.09;;;11.82
34310;BMP280;61664;48.112;11.662;2023-02-23T02:30:47;95107.88;;;11.91
34310;BMP280;61664;48.112;11.662;2023-02-23T02:33:56;95094.00;;;11.93
34310;BMP280;61664;48.112;11.662;2023-02-23T02:40:10;95092.22;;;11.84
34310;BMP280;61664;48.112;11.662;2023-02-23T02:45:36;95102.22;;;11.89
34310;BMP280;61664;48.112;11.662;2023-02-23T02:48:10;95107.88;;;11.91
34310;BMP280;61664;48.112;11.662;2023-02-23T02:50:49;95104.41;;;11.85
34310;BMP280;61664;48.112;11.662;2023-02-23T02:54:05;95099.25;;;11.81
34310;BMP280;61664;48.112;11.662;2023-02-23T02:56:40;95097.72;;;11.75
34310;BMP280;61664;48.112;11.662;2023-02-23T02:59:18;95102.38;;;11.80
34310;BMP280;61664;48.112;11.662;2023-02-23T03:02:05;95099.44;;;11.78
34310;BMP280;61664;48.112;11.662;2023-02-23T03:04:50;95090.63;;;11.72
34310;BMP280;61664;48.112;11.662;2023-02-23T03:14:37;95098.00;;;11.77
34310;BMP280;61664;48.112;11.662;2023-02-23T03:17:44;95103.66;;;11.84
34310;BMP280;61664;48.112;11.662;2023-02-23T03:23:27;95117.81;;;11.91
34310;BMP280;61664;48.112;11.662;2023-02-23T03:26:39;95107.31;;;11.87
34310;BMP280;61664;48.112;11.662;2023-02-23T03:30:03;95105.34;;;11.82
34310;BMP280;61664;48.112;11.662;2023-02-23T03:32:55;95100.41;;;11.75
34310;BMP280;61664;48.112;11.662;2023-02-23T03:35:52;95108.91;;;11.73
34310;BMP280;61664;48.112;11.662;2023-02-23T03:38:51;95114.91;;;11.68
34310;BMP280;61664;48.112;11.662;2023-02-23T03:41:40;95106.88;;;11.68
34310;BMP280;61664;48.112;11.662;2023-02-23T03:44:34;95111.56;;;11.73
34310;BMP280;61664;48.112;11.662;2023-02-23T03:47:26;95123.78;;;11.80
34310;BMP280;61664;48.112;11.662;2023-02-23T03:50:29;95113.03;;;11.74
34310;BMP280;61664;48.112;11.662;2023-02-23T03:53:22;95101.47;;;11.63
34310;BMP280;61664;48.112;11.662;2023-02-23T03:56:11;95111.97;;;11.66
34310;BMP280;61664;48.112;11.662;2023-02-23T03:59:02;95114.84;;;11.63
34310;BMP280;61664;48.112;11.662;2023-02-23T04:01:53;95122.22;;;11.68
34310;BMP280;61664;48.112;11.662;2023-02-23T04:04:41;95131.09;;;11.79
34310;BMP280;61664;48.112;11.662;2023-02-23T04:07:30;95126.94;;;11.78
34310;BMP280;61664;48.112;11.662;2023-02-23T04:10:16;95113.31;;;11.76
34310;BMP280;61664;48.112;11.662;2023-02-23T04:13:18;95126.63;;;11.91
34310;BMP280;61664;48.112;11.662;2023-02-23T04:15:58;95128.59;;;11.96
34310;BMP280;61664;48.112;11.662;2023-02-23T04:18:29;95120.31;;;11.94
34310;BMP280;61664;48.112;11.662;2023-02-23T04:20:58;95111.53;;;11.94
34310;BMP280;61664;48.112;11.662;2023-02-23T04:23:26;95114.41;;;11.90
34310;BMP280;61664;48.112;11.662;2023-02-23T04:25:54;95126.66;;;11.97
34310;BMP280;61664;48.112;11.662;2023-02-23T04:28:24;95124.69;;;11.92
34310;BMP280;61664;48.112;11.662;2023-02-23T04:30:52;95133.16;;;11.90
34310;BMP280;61664;48.112;11.662;2023-02-23T04:33:20;95131.97;;;11.91
34310;BMP280;61664;48.112;11.662;2023-02-23T04:35:48;95122.88;;;11.83
34310;BMP280;61664;48.112;11.662;2023-02-23T04:38:15;95112.56;;;11.76
34310;BMP280;61664;48.112;11.662;2023-02-23T04:40:42;95127.50;;;11.82
34310;BMP280;61664;48.112;11.662;2023-02-23T04:43:12;95122.06;;;11.77
34310;BMP280;61664;48.112;11.662;2023-02-23T04:45:39;95131.03;;;11.74
34310;BMP280;61664;48.112;11.662;2023-02-23T04:48:06;95130.50;;;11.70
34310;BMP280;61664;48.112;11.662;2023-02-23T04:50:34;95127.22;;;11.60
34310;BMP280;61664;48.112;11.662;2023-02-23T04:53:01;95138.94;;;11.63
34310;BMP280;61664;48.112;11.662;2023-02-23T04:55:28;95135.25;;;11.60
34310;BMP280;61664;48.112;11.662;2023-02-23T04:58:00;95136.19;;;11.57
34310;BMP280;61664;48.112;11.662;2023-02-23T05:00:29;95142.53;;;11.60
34310;BMP280;61664;48.112;11.662;2023-02-23T05:02:56;95134.97;;;11.58
34310;BMP280;61664;48.112;11.662;2023-02-23T05:05:24;95133.97;;;11.55
34310;BMP280;61664;48.112;11.662;2023-02-23T05:07:51;95137.19;;;11.60
34310;BMP280;61664;48.112;11.662;2023-02-23T05:10:19;95139.59;;;11.58
34310;BMP280;61664;48.112;11.662;2023-02-23T05:12:46;95144.22;;;11.57
34310;BMP280;61664;48.112;11.662;2023-02-23T05:15:13;95136.41;;;11.53
34310;BMP280;61664;48.112;11.662;2023-02-23T05:17:40;95142.97;;;11.52
34310;BMP280;61664;48.112;11.662;2023-02-23T05:20:12;95136.34;;;11.48
34310;BMP280;61664;48.112;11.662;2023-02-23T05:22:40;95142.16;;;11.46
34310;BMP280;61664;48.112;11.662;2023-02-23T05:25:08;95132.13;;;11.41
34310;BMP280;61664;48.112;11.662;2023-02-23T05:27:36;95126.63;;;11.30
34310;BMP280;61664;48.112;11.662;2023-02-23T05:30:05;95134.72;;;11.36
34310;BMP280;61664;48.112;11.662;2023-02-23T05:32:33;95138.00;;;11.25
34310;BMP280;61664;48.112;11.662;2023-02-23T05:35:01;95131.81;;;11.19
34310;BMP280;61664;48.112;11.662;2023-02-23T05:37:28;95146.97;;;11.22
34310;BMP280;61664;48.112;11.662;2023-02-23T05:39:55;95136.66;;;11.15
34310;BMP280;61664;48.112;11.662;2023-02-23T05:42:22;95131.69;;;11.08
34310;BMP280;61664;48.112;11.662;2023-02-23T05:44:49;95140.69;;;11.10
34310;BMP280;61664;48.112;11.662;2023-02-23T05:47:17;95128.38;;;10.98
34310;BMP280;61664;48.112;11.662;2023-02-23T05:49:44;95147.44;;;11.06
34310;BMP280;61664;48.112;11.662;2023-02-23T05:52:11;95138.59;;;11.00
34310;BMP280;61664;48.112;11.662;2023-02-23T05:54:41;95142.75;;;11.01
34310;BMP280;61664;48.112;11.662;2023-02-23T05:57:08;95144.41;;;10.98
34310;BMP280;61664;48.112;11.662;2023-02-23T05:59:35;95137.53;;;10.92
34310;BMP280;61664;48.112;11.662;2023-02-23T06:02:02;95135.59;;;10.92
34310;BMP280;61664;48.112;11.662;2023-02-23T06:04:32;95141.84;;;10.89
34310;BMP280;61664;48.112;11.662;2023-02-23T06:06:59;95139.00;;;10.93
34310;BMP280;61664;48.112;11.662;2023-02-23T06:09:26;95155.28;;;10.95
34310;BMP280;61664;48.112;11.662;2023-02-23T06:11:52;95150.31;;;10.87
34310;BMP280;61664;48.112;11.662;2023-02-23T06:14:20;95143.50;;;10.86
34310;BMP280;61664;48.112;11.662;2023-02-23T06:16:46;95144.97;;;10.87
34310;BMP280;61664;48.112;11.662;2023-02-23T06:19:14;95140.84;;;10.86
34310;BMP280;61664;48.112;11.662;2023-02-23T06:21:41;95149.22;;;10.94
34310;BMP280;61664;48.112;11.662;2023-02-23T06:24:08;95151.44;;;10.96
34310;BMP280;61664;48.112;11.662;2023-02-23T06:26:35;95160.53;;;11.04
34310;BMP280;61664;48.112;11.662;2023-02-23T06:29:03;95157.88;;;11.04
34310;BMP280;61664;48.112;11.662;2023-02-23T06:31:29;95167.41;;;11.10
34310;BMP280;61664;48.112;11.662;2023-02-23T06:33:56;95163.09;;;11.13
34310;BMP280;61664;48.112;11.662;2023-02-23T06:36:23;95154.28;;;11.07
34310;BMP280;61664;48.112;11.662;2023-02-23T06:38:50;95172.03;;;11.25
34310;BMP280;61664;48.112;11.662;2023-02-23T06:41:21;95175.06;;;11.32
34310;BMP280;61664;48.112;11.662;2023-02-23T06:43:48;95181.94;;;11.39
34310;BMP280;61664;48.112;11.662;2023-02-23T06:46:15;95181.53;;;11.46
34310;BMP280;61664;48.112;11.662;2023-02-23T06:48:42;95184.31;;;11.51
34310;BMP280;61664;48.112;11.662;2023-02-23T06:51:09;95179.69;;;11.52
34310;BMP280;61664;48.112;11.662;2023-02-23T06:53:36;95175.97;;;11.49
34310;BMP280;61664;48.112;11.662;2023-02-23T06:56:03;95179.25;;;11.59
34310;BMP280;61664;48.112;11.662;2023-02-23T06:58:30;95192.06;;;11.70
34310;BMP280;61664;48.112;11.662;2023-02-23T07:00:57;95187.50;;;11.76
34310;BMP280;61664;48.112;11.662;2023-02-23T07:03:25;95181.44;;;11.75
34310;BMP280;61664;48.112;11.662;2023-02-23T07:05:52;95182.22;;;11.81
34310;BMP280;61664;48.112;11.662;2023-02-23T07:08:19;95188.19;;;11.91
34310;BMP280;61664;48.112;11.662;2023-02-23T07:10:46;95182.63;;;11.95
34310;BMP280;61664;48.112;11.662;2023-02-23T07:13:13;95184.81;;;11.96
34310;BMP280;61664;48.112;11.662;2023-02-23T07:15:41;95195.00;;;12.12
34310;BMP280;61664;48.112;11.662;2023-02-23T07:18:08;95185.06;;;12.18
34310;BMP280;61664;48.112;11.662;2023-02-23T07:20:35;95188.56;;;12.30
34310;BMP280;61664;48.112;11.662;2023-02-23T07:23:02;95183.94;;;12.31
34310;BMP280;61664;48.112;11.662;2023-02-23T07:25:29;95189.88;;;12.40
34310;BMP280;61664;48.112;11.662;2023-02-23T07:27:57;95176.03;;;12.42
34310;BMP280;61664;48.112;11.662;2023-02-23T07:30:25;95180.44;;;12.45
34310;BMP280;61664;48.112;11.662;2023-02-23T07:32:52;95187.84;;;12.55
34310;BMP280;61664;48.112;11.662;2023-02-23T07:35:20;95187.19;;;12.66
34310;BMP280;61664;48.112;11.662;2023-02-23T07:37:47;95175.25;;;12.62
34310;BMP280;61664;48.112;11.662;2023-02-23T07:40:17;95188.97;;;12.75
34310;BMP280;61664;48.112;11.662;2023-02-23T07:42:45;95174.84;;;12.74
34310;BMP280;61664;48.112;11.662;2023-02-23T07:45:12;95184.41;;;12.81
34310;BMP280;61664;48.112;11.662;2023-02-23T07:47:38;95187.59;;;12.90
34310;BMP280;61664;48.112;11.662;2023-02-23T07:50:06;95191.78;;;12.97
34310;BMP280;61664;48.112;11.662;2023-02-23T07:52:37;95188.94;;;13.01
34310;BMP280;61664;48.112;11.662;2023-02-23T07:55:06;95189.69;;;13.07
34310;BMP280;61664;48.112;11.662;2023-02-23T07:57:34;95185.78;;;13.08
34310;BMP280;61664;48.112;11.662;2023-02-23T08:00:01;95187.03;;;13.12
34310;BMP280;61664;48.112;11.662;2023-02-23T08:02:28;95193.44;;;13.26
34310;BMP280;61664;48.112;11.662;2023-02-23T08:04:55;95177.06;;;13.18
34310;BMP280;61664;48.112;11.662;2023-02-23T08:07:22;95194.00;;;13.36
34310;BMP280;61664;48.112;11.662;2023-02-23T08:09:50;95189.13;;;13.34
34310;BMP280;61664;48.112;11.662;2023-02-23T08:12:18;95197.66;;;13.38
34310;BMP280;61664;48.112;11.662;2023-02-23T08:14:45;95193.75;;;13.39
34310;BMP280;61664;48.112;11.662;2023-02-23T08:17:12;95204.31;;;13.48
34310;BMP280;61664;48.112;11.662;2023-02-23T08:19:39;95203.31;;;13.46
34310;BMP280;61664;48.112;11.662;2023-02-23T08:22:06;95203.63;;;13.59
34310;BMP280;61664;48.112;11.662;2023-02-23T08:24:36;95209.03;;;13.70
34310;BMP280;61664;48.112;11.662;2023-02-23T08:27:03;95212.50;;;13.82
34310;BMP280;61664;48.112;11.662;2023-02-23T08:29:30;95204.25;;;13.91
34310;BMP280;61664;48.112;11.662;2023-02-23T08:31:57;95200.63;;;14.05
34310;BMP280;61664;48.112;11.662;2023-02-23T08:34:25;95194.50;;;14.10
34310;BMP280;61664;48.112;11.662;2023-02-23T08:36:51;95197.50;;;14.29
34310;BMP280;61664;48.112;11.662;2023-02-23T08:39:22;95212.44;;;14.41
34310;BMP280;61664;48.112;11.662;2023-02-23T08:41:49;95188.72;;;14.56
34310;BMP280;61664;48.112;11.662;2023-02-23T08:44:16;95207.78;;;14.75
34310;BMP280;61664;48.112;11.662;2023-02-23T08:46:43;95185.28;;;14.78
34310;BMP280;61664;48.112;11.662;2023-02-23T08:49:11;95199.25;;;14.82
34310;BMP280;61664;48.112;11.662;2023-02-23T08:51:38;95198.97;;;14.91
34310;BMP280;61664;48.112;11.662;2023-02-23T08:54:07;95187.72;;;14.87
34310;BMP280;61664;48.112;11.662;2023-02-23T08:56:43;95202.63;;;14.88
34310;BMP280;61664;48.112;11.662;2023-02-23T08:59:11;95197.28;;;14.77
34310;BMP280;61664;48.112;11.662;2023-02-23T09:01:39;95197.75;;;14.87
34310;BMP280;61664;48.112;11.662;2023-02-23T09:04:07;95206.56;;;14.93
34310;BMP280;61664;48.112;11.662;2023-02-23T09:06:36;95198.00;;;14.94
34310;BMP280;61664;48.112;11.662;2023-02-23T09:09:03;95184.53;;;14.89
34310;BMP280;61664;48.112;11.662;2023-02-23T09:11:30;95192.09;;;14.90
34310;BMP280;61664;48.112;11.662;2023-02-23T09:13:57;95206.53;;;14.98
34310;BMP280;61664;48.112;11.662;2023-02-23T09:16:24;95198.00;;;14.94
34310;BMP280;61664;48.112;11.662;2023-02-23T09:18:52;95188.94;;;14.97
34310;BMP280;61664;48.112;11.662;2023-02-23T09:21:20;95196.03;;;15.12
34310;BMP280;61664;48.112;11.662;2023-02-23T09:23:51;95181.09;;;15.11
34310;BMP280;61664;48.112;11.662;2023-02-23T09:26:23;95201.59;;;15.30
34310;BMP280;61664;48.112;11.662;2023-02-23T09:28:51;95191.56;;;15.25
34310;BMP280;61664;48.112;11.662;2023-02-23T09:31:22;95202.06;;;15.34
34310;BMP280;61664;48.112;11.662;2023-02-23T09:33:51;95208.13;;;15.46
34310;BMP280;61664;48.112;11.662;2023-02-23T09:36:22;95206.84;;;15.58
34310;BMP280;61664;48.112;11.662;2023-02-23T09:38:53;95215.16;;;15.71
34310;BMP280;61664;48.112;11.662;2023-02-23T09:47:20;95212.13;;;15.86
34310;BMP280;61664;48.112;11.662;2023-02-23T09:49:50;95214.06;;;15.91
34310;BMP280;61664;48.112;11.662;2023-02-23T09:52:37;95201.59;;;15.88
34310;BMP280;61664;48.112;11.662;2023-02-23T09:55:11;95219.66;;;15.99
34310;BMP280;61664;48.112;11.662;2023-02-23T09:57:43;95218.47;;;15.94
34310;BMP280;61664;48.112;11.662;2023-02-23T10:00:37;95225.09;;;15.93
34310;BMP280;61664;48.112;11.662;2023-02-23T10:03:24;95222.41;;;15.93
34310;BMP280;61664;48.112;11.662;2023-02-23T10:06:05;95227.28;;;15.95
34310;BMP280;61664;48.112;11.662;2023-02-23T10:09:10;95226.50;;;16.05
34310;BMP280;61664;48.112;11.662;2023-02-23T10:11:49;95228.91;;;16.09
34310;BMP280;61664;48.112;11.662;2023-02-23T10:14:48;95218.41;;;16.05
34310;BMP280;61664;48.112;11.662;2023-02-23T10:23:39;95214.63;;;16.25
34310;BMP280;61664;48.112;11.662;2023-02-23T10:26:17;95228.72;;;16.42
34310;BMP280;61664;48.112;11.662;2023-02-23T10:28:48;95221.09;;;16.46
34310;BMP280;61664;48.112;11.662;2023-02-23T10:31:41;95219.03;;;16.58
34310;BMP280;61664;48.112;11.662;2023-02-23T10:34:15;95220.31;;;16.81
34310;BMP280;61664;48.112;11.662;2023-02-23T10:37:00;95213.06;;;16.95
34310;BMP280;61664;48.112;11.662;2023-02-23T10:39:31;95210.72;;;17.10
34310;BMP280;61664;48.112;11.662;2023-02-23T10:42:16;95214.25;;;17.24
34310;BMP280;61664;48.112;11.662;2023-02-23T10:44:46;95205.94;;;17.22
34310;BMP280;61664;48.112;11.662;2023-02-23T10:47:19;95219.16;;;17.26
34310;BMP280;61664;48.112;11.662;2023-02-23T10:49:51;95206.22;;;17.18
34310;BMP280;61664;48.112;11.662;2023-02-23T10:52:40;95204.31;;;17.13
34310;BMP280;61664;48.112;11.662;2023-02-23T10:55:30;95210.94;;;17.12
34310;BMP280;61664;48.112;11.662;2023-02-23T10:58:16;95203.41;;;17.05
34310;BMP280;61664;48.112;11.662;2023-02-23T11:00:58;95205.66;;;17.01
34310;BMP280;61664;48.112;11.662;2023-02-23T11:03:44;95212.63;;;16.91
34310;BMP280;61664;48.112;11.662;2023-02-23T11:06:35;95210.28;;;16.76
34310;BMP280;61664;48.112;11.662;2023-02-23T11:09:28;95205.19;;;16.73
34310;BMP280;61664;48.112;11.662;2023-02-23T11:12:26;95199.00;;;16.78
34310;BMP280;61664;48.112;11.662;2023-02-23T11:15:29;95199.56;;;16.95
34310;BMP280;61664;48.112;11.662;2023-02-23T11:18:24;95186.16;;;17.14
34310;BMP280;61664;48.112;11.662;2023-02-23T11:20:52;95186.19;;;17.33
34310;BMP280;61664;48.112;11.662;2023-02-23T11:23:28;95187.84;;;17.60
34310;BMP280;61664;48.112;11.662;2023-02-23T11:28:56;95180.22;;;17.77
34310;BMP280;61664;48.112;11.662;2023-02-23T11:31:34;95176.56;;;17.75
34310;BMP280;61664;48.112;11.662;2023-02-23T11:34:04;95186.28;;;17.83
34310;BMP280;61664;48.112;11.662;2023-02-23T11:36:34;95185.56;;;17.83
34310;BMP280;61664;48.112;11.662;2023-02-23T11:39:19;95165.75;;;17.75
34310;BMP280;61664;48.112;11.662;2023-02-23T11:42:18;95171.72;;;17.86
34310;BMP280;61664;48.112;11.662;2023-02-23T11:45:04;95168.31;;;17.86
34310;BMP280;61664;48.112;11.662;2023-02-23T11:47:37;95160.94;;;17.86
34310;BMP280;61664;48.112;11.662;2023-02-23T11:50:06;95166.50;;;17.94
34310;BMP280;61664;48.112;11.662;2023-02-23T11:52:33;95168.28;;;18.05
34310;BMP280;61664;48.112;11.662;2023-02-23T11:55:06;95164.81;;;18.23
34310;BMP280;61664;48.112;11.662;2023-02-23T11:57:34;95151.78;;;18.40
34310;BMP280;61664;48.112;11.662;2023-02-23T12:00:20;95155.94;;;18.67
34310;BMP280;61664;48.112;11.662;2023-02-23T12:02:59;95155.66;;;18.84
34310;BMP280;61664;48.112;11.662;2023-02-23T12:05:30;95154.94;;;18.97
34310;BMP280;61664;48.112;11.662;2023-02-23T12:08:48;95149.28;;;19.08
34310;BMP280;61664;48.112;11.662;2023-02-23T12:11:24;95144.81;;;19.24
34310;BMP280;61664;48.112;11.662;2023-02-23T12:17:40;95144.88;;;19.44
34310;BMP280;61664;48.112;11.662;2023-02-23T12:20:14;95140.56;;;19.49
34310;BMP280;61664;48.112;11.662;2023-02-23T12:23:17;95135.97;;;19.57
34310;BMP280;61664;48.112;11.662;2023-02-23T12:25:53;95138.88;;;19.93
34310;BMP280;61664;48.112;11.662;2023-02-23T12:28:36;95131.84;;;20.18
34310;BMP280;61664;48.112;11.662;2023-02-23T12:31:50;95134.00;;;19.99
34310;BMP280;61664;48.112;11.662;2023-02-23T12:34:31;95125.09;;;19.91
34310;BMP280;61664;48.112;11.662;2023-02-23T12:37:40;95134.72;;;19.79
34310;BMP280;61664;48.112;11.662;2023-02-23T12:40:36;95125.25;;;19.52
34310;BMP280;61664;48.112;11.662;2023-02-23T12:43:18;95113.81;;;19.45
34310;BMP280;61664;48.112;11.662;2023-02-23T12:45:53;95122.53;;;19.52
34310;BMP280;61664;48.112;11.662;2023-02-23T12:49:00;95123.91;;;19.45
34310;BMP280;61664;48.112;11.662;2023-02-23T12:51:44;95116.41;;;19.38
34310;BMP280;61664;48.112;11.662;2023-02-23T12:54:15;95118.41;;;19.37
34310;BMP280;61664;48.112;11.662;2023-02-23T12:57:10;95122.16;;;19.34
34310;BMP280;61664;48.112;11.662;2023-02-23T13:05:41;95119.72;;;19.23
34310;BMP280;61664;48.112;11.662;2023-02-23T13:08:46;95113.03;;;19.24
34310;BMP280;61664;48.112;11.662;2023-02-23T13:19:48;95113.06;;;19.11
34310;BMP280;61664;48.112;11.662;2023-02-23T13:22:41;95107.06;;;18.92
34310;BMP280;61664;48.112;11.662;2023-02-23T13:28:20;95119.53;;;18.82
34310;BMP280;61664;48.112;11.662;2023-02-23T13:30:49;95107.03;;;18.52
34310;BMP280;61664;48.112;11.662;2023-02-23T13:33:26;95119.22;;;18.46
34310;BMP280;61664;48.112;11.662;2023-02-23T13:36:09;95100.84;;;18.25
34310;BMP280;61664;48.112;11.662;2023-02-23T13:42:03;95108.75;;;18.10
34310;BMP280;61664;48.112;11.662;2023-02-23T13:50:54;95106.25;;;17.80
34310;BMP280;61664;48.112;11.662;2023-02-23T13:53:42;95109.38;;;17.66
34310;BMP280;61664;48.112;11.662;2023-02-23T13:56:20;95104.16;;;17.54
34310;BMP280;61664;48.112;11.662;2023-02-23T13:58:57;95102.03;;;17.47
34310;BMP280;61664;48.112;11.662;2023-02-23T14:01:39;95113.56;;;17.48
34310;BMP280;61664;48.112;11.662;2023-02-23T14:04:32;95099.78;;;17.51
34310;BMP280;61664;48.112;11.662;2023-02-23T14:07:25;95104.88;;;17.55
34310;BMP280;61664;48.112;11.662;2023-02-23T14:09:59;95096.19;;;17.62
34310;BMP280;61664;48.112;11.662;2023-02-23T14:18:01;95097.97;;;17.91
34310;BMP280;61664;48.112;11.662;2023-02-23T14:28:35;95101.63;;;17.75
34310;BMP280;61664;48.112;11.662;2023-02-23T14:41:30;95101.53;;;17.49
34310;BMP280;61664;48.112;11.662;2023-02-23T14:44:44;95092.81;;;17.56
34310;BMP280;61664;48.112;11.662;2023-02-23T14:47:24;95075.59;;;17.59
34310;BMP280;61664;48.112;11.662;2023-02-23T14:50:10;95090.59;;;17.60
34310;BMP280;61664;48.112;11.662;2023-02-23T14:52:43;95079.63;;;17.52
34310;BMP280;61664;48.112;11.662;2023-02-23T14:57:40;95080.41;;;17.47
34310;BMP280;61664;48.112;11.662;2023-02-23T15:00:41;95086.06;;;17.31
34310;BMP280;61664;48.112;11.662;2023-02-23T15:03:10;95089.50;;;17.31
34310;BMP280;61664;48.112;11.662;2023-02-23T15:05:45;95100.13;;;17.24
34310;BMP280;61664;48.112;11.662;2023-02-23T15:08:17;95090.34;;;17.20
34310;BMP280;61664;48.112;11.662;2023-02-23T15:10:48;95086.91;;;17.20
34310;BMP280;61664;48.112;11.662;2023-02-23T15:13:32;95090.00;;;17.30
34310;BMP280;61664;48.112;11.662;2023-02-23T15:16:06;95095.34;;;17.35
34310;BMP280;61664;48.112;11.662;2023-02-23T15:18:40;95091.09;;;17.40
34310;BMP280;61664;48.112;11.662;2023-02-23T15:21:19;95085.47;;;17.38
34310;BMP280;61664;48.112;11.662;2023-02-23T15:23:51;95083.59;;;17.33
34310;BMP280;61664;48.112;11.662;2023-02-23T15:26:32;95088.25;;;17.32
34310;BMP280;61664;48.112;11.662;2023-02-23T15:29:21;95071.53;;;17.15
34310;BMP280;61664;48.112;11.662;2023-02-23T15:31:53;95075.75;;;17.10
34310;BMP280;61664;48.112;11.662;2023-02-23T15:34:27;95071.72;;;16.98
34310;BMP280;61664;48.112;11.662;2023-02-23T15:37:02;95078.88;;;16.96
34310;BMP280;61664;48.112;11.662;2023-02-23T15:39:53;95081.91;;;16.87
34310;BMP280;61664;48.112;11.662;2023-02-23T15:42:31;95082.34;;;16.72
34310;BMP280;61664;48.112;11.662;2023-02-23T15:45:10;95088.06;;;16.63
34310;BMP280;61664;48.112;11.662;2023-02-23T15:47:39;95070.78;;;16.53
34310;BMP280;61664;48.112;11.662;2023-02-23T15:50:26;95077.63;;;16.54
34310;BMP280;61664;48.112;11.662;2023-02-23T15:53:07;95087.38;;;16.57
34310;BMP280;61664;48.112;11.662;2023-02-23T15:55:42;95087.94;;;16.49
34310;BMP280;61664;48.112;11.662;2023-02-23T15:58:22;95090.53;;;16.36
34310;BMP280;61664;48.112;11.662;2023-02-23T16:01:00;95091.34;;;16.26
34310;BMP280;61664;48.112;11.662;2023-02-23T16:03:35;95082.38;;;16.12
34310;BMP280;61664;48.112;11.662;2023-02-23T16:06:07;95079.56;;;15.99
34310;BMP280;61664;48.112;11.662;2023-02-23T16:09:24;95088.09;;;16.03
34310;BMP280;61664;48.112;11.662;2023-02-23T16:12:11;95078.59;;;15.96
34310;BMP280;61664;48.112;11.662;2023-02-23T16:15:33;95072.03;;;15.92
34310;BMP280;61664;48.112;11.662;2023-02-23T16:17:46;95078.88;;;15.93
34310;BMP280;61664;48.112;11.662;2023-02-23T16:20:28;95063.09;;;15.72